createdAt,value
2023-09-03T00:00:42.443Z,94262.88
2023-09-03T00:01:39.325Z,94265.25
2023-09-03T00:02:36.106Z,94255.19
2023-09-03T00:03:32.944Z,94253.94
2023-09-03T00:04:29.730Z,94265.91
2023-09-03T00:05:26.389Z,94264.72
2023-09-03T00:06:23.121Z,94263.94
2023-09-03T00:07:19.795Z,94262.38
2023-09-03T00:08:16.614Z,94263.84
2023-09-03T00:09:13.295Z,94255.69
2023-09-03T00:10:10.097Z,94259.16
2023-09-03T00:11:06.688Z,94260.72
2023-09-03T00:12:04.551Z,94267.25
2023-09-03T00:13:01.144Z,94266.84
2023-09-03T00:13:58.174Z,94265.66
2023-09-03T00:14:55.854Z,94254.81
2023-09-03T00:15:52.514Z,94269.50
2023-09-03T00:16:49.343Z,94258.25
2023-09-03T00:17:46.564Z,94273.75
2023-09-03T00:18:43.299Z,94256.38
2023-09-03T00:19:40.125Z,94275.63
2023-09-03T00:20:36.877Z,94269.88
2023-09-03T00:21:33.553Z,94274.84
2023-09-03T00:22:30.356Z,94279.06
2023-09-03T00:23:27.167Z,94274.94
2023-09-03T00:24:23.976Z,94275.72
2023-09-03T00:25:20.649Z,94275.69
2023-09-03T00:26:19.372Z,94283.78
2023-09-03T00:27:16.128Z,94286.72
2023-09-03T00:28:12.881Z,94279.75
2023-09-03T00:29:09.666Z,94280.97
2023-09-03T00:30:06.882Z,94278.31
2023-09-03T00:31:11.395Z,94280.69
2023-09-03T00:32:08.087Z,94279.59
2023-09-03T00:33:05.094Z,94285.75
2023-09-03T00:34:01.830Z,94280.97
2023-09-03T00:34:59.881Z,94282.03
2023-09-03T00:35:56.580Z,94277.25
2023-09-03T00:36:53.318Z,94280.72
2023-09-03T00:37:49.943Z,94283.06
2023-09-03T00:38:50.738Z,94286.97
2023-09-03T00:39:47.413Z,94284.63
2023-09-03T00:40:44.071Z,94281.66
2023-09-03T00:41:40.658Z,94286.38
2023-09-03T00:42:37.330Z,94279.03
2023-09-03T00:43:34.665Z,94281.41
2023-09-03T00:44:31.379Z,94281.41
2023-09-03T00:45:28.019Z,94279.44
2023-09-03T00:46:25.131Z,94280.63
2023-09-03T00:47:22.202Z,94276.78
2023-09-03T00:48:21.788Z,94273.66
2023-09-03T00:49:22.882Z,94269.84
2023-09-03T00:50:19.546Z,94270.63
2023-09-03T00:51:18.303Z,94265.59
2023-09-03T00:52:19.749Z,94255.56
2023-09-03T00:53:17.931Z,94264.84
2023-09-03T00:54:14.791Z,94259.44
2023-09-03T00:55:11.451Z,94268.31
2023-09-03T00:56:09.662Z,94252.84
2023-09-03T00:57:06.377Z,94268.34
2023-09-03T00:58:03.492Z,94268.69
2023-09-03T00:59:03.567Z,94262.47
2023-09-03T01:00:01.120Z,94262.84
2023-09-03T01:00:57.845Z,94255.50
2023-09-03T01:01:54.945Z,94234.19
2023-09-03T01:02:54.280Z,94264.00
2023-09-03T01:03:51.073Z,94263.16
2023-09-03T01:04:47.820Z,94258.13
2023-09-03T01:05:44.479Z,94260.84
2023-09-03T01:06:41.298Z,94258.22
2023-09-03T01:07:38.594Z,94250.44
2023-09-03T01:08:37.032Z,94235.28
2023-09-03T01:09:33.848Z,94258.53
2023-09-03T01:10:49.719Z,94261.97
2023-09-03T01:12:03.679Z,94257.72
2023-09-03T01:13:40.808Z,94257.34
2023-09-03T01:14:41.258Z,94256.59
2023-09-03T01:15:43.803Z,94258.47
2023-09-03T01:17:13.057Z,94261.25
2023-09-03T01:18:17.735Z,94253.88
2023-09-03T01:19:37.724Z,94255.03
2023-09-03T01:20:43.265Z,94256.16
2023-09-03T01:21:58.677Z,94247.22
2023-09-03T01:23:04.437Z,94261.09
2023-09-03T01:24:42.697Z,94266.84
2023-09-03T01:26:03.766Z,94260.72
2023-09-03T01:27:29.638Z,94258.75
2023-09-03T01:28:39.584Z,94254.53
2023-09-03T01:29:37.706Z,94259.63
2023-09-03T01:30:35.294Z,94261.25
2023-09-03T01:31:32.449Z,94266.28
2023-09-03T01:32:29.302Z,94272.03
2023-09-03T01:33:31.868Z,94260.50
2023-09-03T01:34:28.875Z,94263.06
2023-09-03T01:35:26.009Z,94275.16
2023-09-03T01:36:23.556Z,94277.84
2023-09-03T01:37:20.430Z,94277.84
2023-09-03T01:38:17.220Z,94276.25
2023-09-03T01:39:14.030Z,94270.78
2023-09-03T01:40:11.676Z,94273.88
2023-09-03T01:41:08.943Z,94278.91
2023-09-03T01:42:05.732Z,94265.81
2023-09-03T01:43:02.477Z,94270.06
2023-09-03T01:43:59.360Z,94255.72
2023-09-03T01:44:56.065Z,94271.06
2023-09-03T01:45:55.366Z,94262.97
2023-09-03T01:46:57.704Z,94259.47
2023-09-03T01:48:40.719Z,94266.34
2023-09-03T01:49:51.471Z,94264.34
2023-09-03T01:51:12.198Z,94265.72
2023-09-03T01:52:20.796Z,94265.19
2023-09-03T01:53:30.323Z,94260.19
2023-09-03T01:54:31.181Z,94260.09
2023-09-03T01:55:31.556Z,94264.75
2023-09-03T01:56:30.867Z,94258.63
2023-09-03T01:57:33.653Z,94262.94
2023-09-03T01:58:35.678Z,94262.50
2023-09-03T01:59:45.214Z,94262.69
2023-09-03T02:00:42.782Z,94262.94
2023-09-03T02:01:39.767Z,94264.84
2023-09-03T02:02:39.071Z,94261.19
2023-09-03T02:03:37.462Z,94267.28
2023-09-03T02:04:34.573Z,94268.78
2023-09-03T02:05:31.401Z,94264.97
2023-09-03T02:06:28.644Z,94262.59
2023-09-03T02:07:25.975Z,94264.25
2023-09-03T02:08:23.154Z,94258.81
2023-09-03T02:09:20.273Z,94256.34
2023-09-03T02:10:17.748Z,94260.31
2023-09-03T02:11:14.456Z,94258.31
2023-09-03T02:12:11.205Z,94260.50
2023-09-03T02:13:07.936Z,94253.09
2023-09-03T02:14:04.641Z,94264.19
2023-09-03T02:15:01.283Z,94255.84
2023-09-03T02:15:59.952Z,94257.81
2023-09-03T02:16:56.632Z,94257.72
2023-09-03T02:17:54.915Z,94263.97
2023-09-03T02:18:51.665Z,94256.25
2023-09-03T02:19:53.183Z,94254.69
2023-09-03T02:20:49.870Z,94256.22
2023-09-03T02:21:46.693Z,94258.16
2023-09-03T02:22:43.294Z,94253.69
2023-09-03T02:23:39.938Z,94260.19
2023-09-03T02:24:36.578Z,94258.78
2023-09-03T02:25:33.324Z,94254.53
2023-09-03T02:26:30.207Z,94259.63
2023-09-03T02:27:26.869Z,94253.31
2023-09-03T02:28:23.581Z,94259.19
2023-09-03T02:29:20.307Z,94253.72
2023-09-03T02:30:17.817Z,94250.69
2023-09-03T02:31:14.801Z,94253.78
2023-09-03T02:32:11.588Z,94250.22
2023-09-03T02:33:08.331Z,94254.94
2023-09-03T02:34:06.543Z,94239.03
2023-09-03T02:35:03.502Z,94251.81
2023-09-03T02:36:00.223Z,94246.50
2023-09-03T02:36:57.139Z,94253.03
2023-09-03T02:37:53.913Z,94245.41
2023-09-03T02:38:59.880Z,94251.53
2023-09-03T02:39:56.505Z,94246.63
2023-09-03T02:40:53.334Z,94248.78
2023-09-03T02:41:50.136Z,94249.19
2023-09-03T02:42:46.743Z,94249.94
2023-09-03T02:43:43.379Z,94257.75
2023-09-03T02:44:40.115Z,94259.38
2023-09-03T02:45:36.812Z,94258.84
2023-09-03T02:46:33.622Z,94257.22
2023-09-03T02:47:30.410Z,94258.09
2023-09-03T02:48:27.098Z,94250.88
2023-09-03T02:49:23.762Z,94256.00
2023-09-03T02:50:20.516Z,94254.72
2023-09-03T02:51:17.417Z,94261.78
2023-09-03T02:52:14.189Z,94257.66
2023-09-03T02:53:11.648Z,94265.72
2023-09-03T02:54:08.616Z,94260.44
2023-09-03T02:55:05.590Z,94257.25
2023-09-03T02:56:02.280Z,94250.34
2023-09-03T02:56:58.944Z,94260.66
2023-09-03T02:57:55.569Z,94254.31
2023-09-03T02:58:52.344Z,94263.13
2023-09-03T02:59:49.634Z,94256.94
2023-09-03T03:00:46.315Z,94262.25
2023-09-03T03:01:43.715Z,94253.81
2023-09-03T03:02:40.591Z,94260.19
2023-09-03T03:03:37.589Z,94264.41
2023-09-03T03:04:34.242Z,94254.81
2023-09-03T03:05:30.867Z,94242.53
2023-09-03T03:06:27.541Z,94255.59
2023-09-03T03:07:24.276Z,94246.00
2023-09-03T03:08:21.108Z,94254.00
2023-09-03T03:09:17.919Z,94248.78
2023-09-03T03:10:15.708Z,94250.75
2023-09-03T03:11:17.455Z,94248.44
2023-09-03T03:12:14.143Z,94251.09
2023-09-03T03:13:11.903Z,94255.19
2023-09-03T03:14:08.541Z,94251.78
2023-09-03T03:15:05.647Z,94257.63
2023-09-03T03:16:09.675Z,94251.47
2023-09-03T03:17:07.445Z,94251.84
2023-09-03T03:18:04.458Z,94244.63
2023-09-03T03:19:03.172Z,94255.06
2023-09-03T03:19:59.840Z,94248.41
2023-09-03T03:21:19.924Z,94243.00
2023-09-03T03:22:16.640Z,94239.78
2023-09-03T03:23:13.360Z,94244.75
2023-09-03T03:24:10.534Z,94238.94
2023-09-03T03:25:07.901Z,94246.31
2023-09-03T03:26:06.222Z,94242.50
2023-09-03T03:27:03.061Z,94240.22
2023-09-03T03:27:59.765Z,94248.34
2023-09-03T03:28:56.406Z,94243.72
2023-09-03T03:29:53.634Z,94241.13
2023-09-03T03:30:50.272Z,94240.31
2023-09-03T03:31:47.585Z,94248.25
2023-09-03T03:32:44.611Z,94249.75
2023-09-03T03:33:42.525Z,94250.06
2023-09-03T03:34:42.645Z,94252.25
2023-09-03T03:35:39.399Z,94249.81
2023-09-03T03:36:36.274Z,94249.00
2023-09-03T03:37:33.039Z,94253.66
2023-09-03T03:38:29.818Z,94255.50
2023-09-03T03:39:26.716Z,94255.31
2023-09-03T03:40:23.391Z,94247.63
2023-09-03T03:41:21.261Z,94251.50
2023-09-03T03:42:18.084Z,94246.47
2023-09-03T03:43:14.868Z,94250.78
2023-09-03T03:44:11.537Z,94257.44
2023-09-03T03:45:08.506Z,94235.75
2023-09-03T03:46:10.235Z,94248.16
2023-09-03T03:47:06.959Z,94247.31
2023-09-03T03:48:04.097Z,94249.16
2023-09-03T03:49:01.100Z,94249.13
2023-09-03T03:49:57.806Z,94240.34
2023-09-03T03:50:58.115Z,94240.47
2023-09-03T03:51:54.853Z,94250.38
2023-09-03T03:52:51.530Z,94249.78
2023-09-03T03:53:48.274Z,94248.94
2023-09-03T03:54:44.963Z,94252.03
2023-09-03T03:55:41.632Z,94246.28
2023-09-03T03:56:38.303Z,94251.56
2023-09-03T03:57:35.259Z,94256.50
2023-09-03T03:58:34.429Z,94253.44
2023-09-03T03:59:31.610Z,94260.34
2023-09-03T04:00:28.934Z,94253.50
2023-09-03T04:01:25.771Z,94251.63
2023-09-03T04:02:23.001Z,94257.78
2023-09-03T04:03:19.770Z,94257.53
2023-09-03T04:04:16.699Z,94259.91
2023-09-03T04:05:13.519Z,94253.13
2023-09-03T04:06:10.612Z,94255.59
2023-09-03T04:07:07.287Z,94255.25
2023-09-03T04:08:04.322Z,94257.56
2023-09-03T04:09:01.159Z,94248.59
2023-09-03T04:09:57.895Z,94260.84
2023-09-03T04:10:58.168Z,94262.03
2023-09-03T04:11:54.837Z,94254.19
2023-09-03T04:12:51.852Z,94253.34
2023-09-03T04:13:48.636Z,94260.47
2023-09-03T04:14:46.311Z,94249.56
2023-09-03T04:15:42.971Z,94259.34
2023-09-03T04:16:39.730Z,94264.41
2023-09-03T04:17:36.674Z,94256.72
2023-09-03T04:18:34.285Z,94263.34
2023-09-03T04:19:30.937Z,94257.97
2023-09-03T04:20:27.603Z,94254.50
2023-09-03T04:21:24.339Z,94254.16
2023-09-03T04:22:21.019Z,94253.88
2023-09-03T04:23:17.627Z,94250.09
2023-09-03T04:24:14.366Z,94249.75
2023-09-03T04:25:10.978Z,94252.16
2023-09-03T04:26:10.496Z,94249.75
2023-09-03T04:27:07.294Z,94248.72
2023-09-03T04:28:04.218Z,94251.03
2023-09-03T04:29:00.977Z,94246.78
2023-09-03T04:29:57.595Z,94248.81
2023-09-03T04:30:55.460Z,94252.28
2023-09-03T04:31:52.117Z,94243.41
2023-09-03T04:32:48.762Z,94256.19
2023-09-03T04:33:45.520Z,94251.91
2023-09-03T04:34:42.170Z,94263.81
2023-09-03T04:35:39.639Z,94256.53
2023-09-03T04:36:36.406Z,94262.00
2023-09-03T04:37:34.175Z,94260.09
2023-09-03T04:38:31.375Z,94250.38
2023-09-03T04:39:28.061Z,94262.00
2023-09-03T04:40:25.395Z,94263.22
2023-09-03T04:41:22.033Z,94260.97
2023-09-03T04:42:18.726Z,94261.00
2023-09-03T04:43:15.670Z,94260.63
2023-09-03T04:44:13.929Z,94257.69
2023-09-03T04:45:10.912Z,94260.81
2023-09-03T04:46:08.430Z,94257.03
2023-09-03T04:47:06.719Z,94261.28
2023-09-03T04:48:04.001Z,94257.06
2023-09-03T04:49:00.867Z,94255.59
2023-09-03T04:49:57.570Z,94259.91
2023-09-03T04:50:54.463Z,94252.63
2023-09-03T04:51:51.141Z,94255.28
2023-09-03T04:52:49.673Z,94249.53
2023-09-03T04:53:46.978Z,94246.88
2023-09-03T04:54:45.071Z,94247.22
2023-09-03T04:55:42.511Z,94250.00
2023-09-03T04:56:39.276Z,94243.53
2023-09-03T04:57:35.940Z,94242.31
2023-09-03T04:58:33.460Z,94239.72
2023-09-03T04:59:30.409Z,94232.94
2023-09-03T05:00:28.357Z,94235.63
2023-09-03T05:01:25.400Z,94236.13
2023-09-03T05:02:22.375Z,94241.56
2023-09-03T05:03:19.081Z,94235.81
2023-09-03T05:04:19.118Z,94237.38
2023-09-03T05:05:15.841Z,94233.13
2023-09-03T05:06:14.931Z,94222.44
2023-09-03T05:07:11.618Z,94227.91
2023-09-03T05:08:09.781Z,94235.69
2023-09-03T05:09:07.149Z,94233.34
2023-09-03T05:10:04.152Z,94231.13
2023-09-03T05:11:09.018Z,94230.78
2023-09-03T05:12:06.849Z,94229.25
2023-09-03T05:13:05.365Z,94224.63
2023-09-03T05:14:02.055Z,94227.34
2023-09-03T05:14:58.832Z,94231.22
2023-09-03T05:15:55.469Z,94228.13
2023-09-03T05:16:52.218Z,94228.16
2023-09-03T05:17:48.981Z,94222.38
2023-09-03T05:18:45.775Z,94216.56
2023-09-03T05:19:42.659Z,94222.38
2023-09-03T05:20:39.855Z,94227.03
2023-09-03T05:21:36.523Z,94224.28
2023-09-03T05:22:34.532Z,94223.53
2023-09-03T05:23:31.192Z,94219.31
2023-09-03T05:24:27.848Z,94214.69
2023-09-03T05:25:24.506Z,94223.19
2023-09-03T05:26:21.129Z,94222.44
2023-09-03T05:27:17.874Z,94225.88
2023-09-03T05:28:14.529Z,94223.56
2023-09-03T05:29:11.185Z,94220.13
2023-09-03T05:30:08.426Z,94220.50
2023-09-03T05:31:05.077Z,94222.03
2023-09-03T05:32:02.113Z,94215.88
2023-09-03T05:32:58.944Z,94218.94
2023-09-03T05:33:55.934Z,94226.66
2023-09-03T05:34:52.694Z,94220.50
2023-09-03T05:35:49.331Z,94220.88
2023-09-03T05:36:46.124Z,94215.44
2023-09-03T05:37:42.823Z,94223.19
2023-09-03T05:38:43.811Z,94226.28
2023-09-03T05:39:40.611Z,94224.34
2023-09-03T05:40:37.344Z,94220.44
2023-09-03T05:41:34.818Z,94230.13
2023-09-03T05:42:31.457Z,94237.06
2023-09-03T05:43:28.249Z,94235.50
2023-09-03T05:44:25.538Z,94216.22
2023-09-03T05:45:22.251Z,94237.09
2023-09-03T05:46:18.963Z,94236.28
2023-09-03T05:47:19.636Z,94231.69
2023-09-03T05:48:16.700Z,94239.81
2023-09-03T05:49:13.516Z,94240.53
2023-09-03T05:50:10.397Z,94244.38
2023-09-03T05:51:07.275Z,94243.56
2023-09-03T05:52:04.327Z,94244.63
2023-09-03T05:53:00.981Z,94248.44
2023-09-03T05:53:57.824Z,94249.94
2023-09-03T05:54:54.617Z,94242.13
2023-09-03T05:55:51.492Z,94247.22
2023-09-03T05:56:48.150Z,94255.38
2023-09-03T05:57:44.951Z,94258.50
2023-09-03T05:58:41.658Z,94248.16
2023-09-03T05:59:38.410Z,94249.34
2023-09-03T06:00:35.096Z,94252.06
2023-09-03T06:01:31.973Z,94239.97
2023-09-03T06:02:28.686Z,94246.44
2023-09-03T06:03:25.438Z,94245.22
2023-09-03T06:04:22.110Z,94251.75
2023-09-03T06:05:18.868Z,94252.44
2023-09-03T06:06:15.783Z,94247.59
2023-09-03T06:07:12.543Z,94251.53
2023-09-03T06:08:11.573Z,94256.19
2023-09-03T06:09:10.866Z,94253.97
2023-09-03T06:10:08.156Z,94241.88
2023-09-03T06:11:06.903Z,94260.06
2023-09-03T06:12:03.858Z,94256.09
2023-09-03T06:13:00.456Z,94254.78
2023-09-03T06:13:57.105Z,94253.66
2023-09-03T06:14:53.826Z,94257.53
2023-09-03T06:15:51.478Z,94256.09
2023-09-03T06:16:48.141Z,94253.50
2023-09-03T06:17:50.002Z,94252.75
2023-09-03T06:18:46.896Z,94259.56
2023-09-03T06:19:44.188Z,94257.44
2023-09-03T06:20:40.841Z,94258.78
2023-09-03T06:21:37.538Z,94260.50
2023-09-03T06:22:34.155Z,94260.59
2023-09-03T06:23:30.923Z,94266.38
2023-09-03T06:24:30.677Z,94263.69
2023-09-03T06:25:28.071Z,94266.50
2023-09-03T06:26:24.762Z,94268.69
2023-09-03T06:27:21.404Z,94262.78
2023-09-03T06:28:18.537Z,94268.88
2023-09-03T06:29:15.139Z,94266.78
2023-09-03T06:30:12.259Z,94265.31
2023-09-03T06:31:10.604Z,94270.69
2023-09-03T06:32:09.207Z,94262.19
2023-09-03T06:33:06.224Z,94269.75
2023-09-03T06:34:02.962Z,94264.41
2023-09-03T06:34:59.649Z,94268.72
2023-09-03T06:35:57.631Z,94277.03
2023-09-03T06:36:54.363Z,94270.34
2023-09-03T06:37:51.022Z,94268.09
2023-09-03T06:38:47.755Z,94261.66
2023-09-03T06:39:44.512Z,94273.97
2023-09-03T06:40:41.197Z,94268.81
2023-09-03T06:41:38.287Z,94265.94
2023-09-03T06:42:34.974Z,94271.16
2023-09-03T06:43:31.712Z,94266.53
2023-09-03T06:44:28.363Z,94270.00
2023-09-03T06:45:25.312Z,94268.63
2023-09-03T06:46:22.313Z,94264.03
2023-09-03T06:47:19.062Z,94270.78
2023-09-03T06:48:15.801Z,94272.72
2023-09-03T06:49:12.399Z,94275.44
2023-09-03T06:50:10.009Z,94272.97
2023-09-03T06:51:06.868Z,94262.88
2023-09-03T06:52:03.652Z,94264.69
2023-09-03T06:53:00.289Z,94260.94
2023-09-03T06:53:57.653Z,94252.06
2023-09-03T06:54:54.460Z,94258.91
2023-09-03T06:55:52.126Z,94245.47
2023-09-03T06:56:48.784Z,94262.44
2023-09-03T06:57:45.419Z,94257.53
2023-09-03T06:58:42.199Z,94267.06
2023-09-03T06:59:38.938Z,94270.72
2023-09-03T07:00:35.983Z,94276.09
2023-09-03T07:01:33.353Z,94268.31
2023-09-03T07:02:30.157Z,94270.66
2023-09-03T07:03:27.797Z,94269.22
2023-09-03T07:04:24.523Z,94276.16
2023-09-03T07:05:21.158Z,94277.97
2023-09-03T07:06:17.827Z,94270.63
2023-09-03T07:07:14.463Z,94276.19
2023-09-03T07:08:11.176Z,94280.66
2023-09-03T07:09:07.854Z,94280.97
2023-09-03T07:10:04.842Z,94276.78
2023-09-03T07:11:01.714Z,94267.63
2023-09-03T07:11:58.456Z,94276.78
2023-09-03T07:12:56.397Z,94272.22
2023-09-03T07:13:53.017Z,94267.59
2023-09-03T07:14:49.736Z,94271.91
2023-09-03T07:15:46.397Z,94265.22
2023-09-03T07:16:43.097Z,94269.19
2023-09-03T07:17:39.864Z,94249.41
2023-09-03T07:18:36.553Z,94263.41
2023-09-03T07:19:33.266Z,94258.59
2023-09-03T07:20:29.962Z,94263.44
2023-09-03T07:21:26.662Z,94273.28
2023-09-03T07:22:23.348Z,94267.09
2023-09-03T07:23:20.233Z,94265.06
2023-09-03T07:24:17.320Z,94271.69
2023-09-03T07:25:14.004Z,94264.81
2023-09-03T07:26:10.871Z,94270.44
2023-09-03T07:27:07.579Z,94266.72
2023-09-03T07:28:04.453Z,94273.81
2023-09-03T07:29:01.150Z,94258.41
2023-09-03T07:29:57.938Z,94267.59
2023-09-03T07:30:54.605Z,94269.28
2023-09-03T07:31:51.304Z,94267.53
2023-09-03T07:32:47.955Z,94269.28
2023-09-03T07:33:46.173Z,94267.88
2023-09-03T07:34:44.609Z,94257.09
2023-09-03T07:35:41.573Z,94273.41
2023-09-03T07:36:38.818Z,94264.03
2023-09-03T07:37:35.915Z,94262.44
2023-09-03T07:38:32.729Z,94270.38
2023-09-03T07:39:29.380Z,94267.38
2023-09-03T07:40:26.063Z,94265.00
2023-09-03T07:41:22.731Z,94263.31
2023-09-03T07:42:19.444Z,94263.47
2023-09-03T07:43:16.149Z,94267.38
2023-09-03T07:44:12.835Z,94271.16
2023-09-03T07:45:11.289Z,94270.44
2023-09-03T07:46:08.054Z,94269.53
2023-09-03T07:47:04.985Z,94271.38
2023-09-03T07:48:01.720Z,94279.69
2023-09-03T07:48:58.406Z,94276.28
2023-09-03T07:49:55.305Z,94269.13
2023-09-03T07:50:53.186Z,94273.56
2023-09-03T07:51:49.896Z,94267.81
2023-09-03T07:52:46.759Z,94273.63
2023-09-03T07:53:43.480Z,94264.50
2023-09-03T07:54:40.964Z,94268.66
2023-09-03T07:55:37.676Z,94276.69
2023-09-03T07:56:34.403Z,94270.16
2023-09-03T07:57:33.486Z,94275.81
2023-09-03T07:58:30.206Z,94270.22
2023-09-03T07:59:26.831Z,94269.81
2023-09-03T08:00:23.511Z,94272.16
2023-09-03T08:01:20.845Z,94268.31
2023-09-03T08:02:17.557Z,94273.31
2023-09-03T08:03:14.422Z,94263.38
2023-09-03T08:04:11.140Z,94270.72
2023-09-03T08:05:12.289Z,94270.53
2023-09-03T08:06:09.577Z,94265.84
2023-09-03T08:07:06.194Z,94271.22
2023-09-03T08:08:03.553Z,94272.00
2023-09-03T08:09:01.689Z,94272.00
2023-09-03T08:09:58.345Z,94269.97
2023-09-03T08:10:56.202Z,94264.22
2023-09-03T08:11:52.929Z,94268.00
2023-09-03T08:12:51.742Z,94270.72
2023-09-03T08:13:57.638Z,94270.56
2023-09-03T08:14:56.491Z,94278.34
2023-09-03T08:15:54.825Z,94274.31
2023-09-03T08:16:51.485Z,94264.56
2023-09-03T08:17:48.166Z,94262.03
2023-09-03T08:18:44.867Z,94262.09
2023-09-03T08:19:41.788Z,94254.66
2023-09-03T08:20:38.437Z,94265.47
2023-09-03T08:21:35.119Z,94258.69
2023-09-03T08:22:31.737Z,94258.03
2023-09-03T08:23:29.356Z,94256.50
2023-09-03T08:24:30.202Z,94258.16
2023-09-03T08:25:29.159Z,94258.28
2023-09-03T08:26:25.851Z,94256.88
2023-09-03T08:27:22.515Z,94256.69
2023-09-03T08:28:19.161Z,94258.00
2023-09-03T08:29:15.813Z,94256.63
2023-09-03T08:30:12.867Z,94249.81
2023-09-03T08:31:09.582Z,94257.00
2023-09-03T08:32:06.822Z,94262.56
2023-09-03T08:33:03.796Z,94250.34
2023-09-03T08:34:00.435Z,94250.75
2023-09-03T08:34:57.353Z,94244.66
2023-09-03T08:35:54.095Z,94263.88
2023-09-03T08:36:50.742Z,94256.44
2023-09-03T08:37:47.522Z,94252.84
2023-09-03T08:38:44.253Z,94252.84
2023-09-03T08:39:40.916Z,94255.44
2023-09-03T08:40:37.850Z,94248.22
2023-09-03T08:41:38.434Z,94240.00
2023-09-03T08:42:36.879Z,94248.81
2023-09-03T08:43:33.847Z,94251.28
2023-09-03T08:44:50.582Z,94243.47
2023-09-03T08:45:54.564Z,94256.28
2023-09-03T08:46:53.357Z,94240.63
2023-09-03T08:47:50.326Z,94243.63
2023-09-03T08:48:50.671Z,94237.38
2023-09-03T08:49:48.450Z,94236.78
2023-09-03T08:50:45.706Z,94238.47
2023-09-03T08:51:42.499Z,94230.16
2023-09-03T08:52:41.021Z,94227.63
2023-09-03T08:53:39.289Z,94233.50
2023-09-03T08:54:36.533Z,94236.00
2023-09-03T08:55:34.624Z,94218.66
2023-09-03T08:56:31.548Z,94224.69
2023-09-03T08:57:31.713Z,94227.97
2023-09-03T08:58:28.295Z,94233.09
2023-09-03T08:59:25.195Z,94231.91
2023-09-03T09:00:22.284Z,94235.97
2023-09-03T09:01:19.775Z,94223.25
2023-09-03T09:02:18.631Z,94211.09
2023-09-03T09:03:17.964Z,94209.75
2023-09-03T09:04:15.025Z,94218.75
2023-09-03T09:05:12.803Z,94219.16
2023-09-03T09:06:09.441Z,94212.06
2023-09-03T09:07:07.542Z,94213.63
2023-09-03T09:08:06.021Z,94210.75
2023-09-03T09:09:04.247Z,94197.00
2023-09-03T09:10:07.670Z,94207.03
2023-09-03T09:11:08.709Z,94209.09
2023-09-03T09:12:18.705Z,94209.22
2023-09-03T09:13:22.960Z,94208.22
2023-09-03T09:14:36.380Z,94207.81
2023-09-03T09:15:34.942Z,94207.84
2023-09-03T09:16:31.609Z,94199.56
2023-09-03T09:17:29.860Z,94203.31
2023-09-03T09:18:26.516Z,94197.00
2023-09-03T09:19:23.179Z,94202.00
2023-09-03T09:20:20.699Z,94197.84
2023-09-03T09:21:19.688Z,94195.78
2023-09-03T09:22:18.477Z,94203.19
2023-09-03T09:23:23.159Z,94207.22
2023-09-03T09:24:20.362Z,94197.47
2023-09-03T09:25:24.873Z,94197.84
2023-09-03T09:26:23.591Z,94194.09
2023-09-03T09:27:21.123Z,94197.38
2023-09-03T09:28:17.750Z,94190.25
2023-09-03T09:29:14.344Z,94182.25
2023-09-03T09:30:12.265Z,94191.56
2023-09-03T09:31:12.269Z,94186.13
2023-09-03T09:32:22.985Z,94188.13
2023-09-03T09:33:19.935Z,94186.22
2023-09-03T09:34:19.202Z,94188.97
2023-09-03T09:35:25.733Z,94183.00
2023-09-03T09:36:22.443Z,94185.63
2023-09-03T09:37:19.200Z,94191.25
2023-09-03T09:38:17.357Z,94182.91
2023-09-03T09:39:14.165Z,94181.34
2023-09-03T09:40:13.832Z,94183.63
2023-09-03T09:41:27.757Z,94184.84
2023-09-03T09:42:24.733Z,94177.75
2023-09-03T09:43:21.707Z,94177.19
2023-09-03T09:44:19.692Z,94179.22
2023-09-03T09:45:16.432Z,94174.59
2023-09-03T09:46:26.706Z,94180.75
2023-09-03T09:47:24.013Z,94180.59
2023-09-03T09:48:20.709Z,94177.84
2023-09-03T09:49:17.426Z,94169.53
2023-09-03T09:50:14.037Z,94181.75
2023-09-03T09:51:10.702Z,94179.59
2023-09-03T09:52:07.316Z,94175.03
2023-09-03T09:53:05.139Z,94180.19
2023-09-03T09:54:03.584Z,94174.59
2023-09-03T09:55:00.288Z,94169.75
2023-09-03T09:56:04.243Z,94176.72
2023-09-03T09:57:10.483Z,94171.13
2023-09-03T09:58:08.718Z,94168.81
2023-09-03T09:59:10.999Z,94165.47
2023-09-03T10:00:09.294Z,94171.19
2023-09-03T10:01:06.949Z,94160.13
2023-09-03T10:02:17.501Z,94150.28
2023-09-03T10:03:16.378Z,94154.88
2023-09-03T10:04:13.386Z,94157.75
2023-09-03T10:05:11.668Z,94157.81
2023-09-03T10:06:11.567Z,94150.97
2023-09-03T10:07:09.114Z,94149.59
2023-09-03T10:08:07.078Z,94145.66
2023-09-03T10:09:04.737Z,94152.66
2023-09-03T10:10:02.297Z,94150.50
2023-09-03T10:10:58.954Z,94145.09
2023-09-03T10:11:55.593Z,94134.28
2023-09-03T10:12:52.304Z,94140.22
2023-09-03T10:13:49.892Z,94132.22
2023-09-03T10:14:46.583Z,94136.75
2023-09-03T10:15:43.435Z,94141.31
2023-09-03T10:16:40.310Z,94125.69
2023-09-03T10:17:39.547Z,94132.97
2023-09-03T10:18:44.711Z,94128.50
2023-09-03T10:19:54.872Z,94132.91
2023-09-03T10:20:52.355Z,94127.53
2023-09-03T10:21:53.945Z,94137.75
2023-09-03T10:22:53.359Z,94133.59
2023-09-03T10:23:51.707Z,94124.94
2023-09-03T10:25:01.590Z,94118.84
2023-09-03T10:26:05.602Z,94121.72
2023-09-03T10:27:10.573Z,94111.81
2023-09-03T10:28:08.671Z,94120.19
2023-09-03T10:29:11.238Z,94120.28
2023-09-03T10:30:12.303Z,94133.25
2023-09-03T10:31:11.971Z,94122.69
2023-09-03T10:32:11.861Z,94134.50
2023-09-03T10:33:10.488Z,94130.25
2023-09-03T10:34:11.757Z,94119.38
2023-09-03T10:35:12.359Z,94124.78
2023-09-03T10:36:19.624Z,94118.63
2023-09-03T10:37:16.328Z,94125.97
2023-09-03T10:38:30.906Z,94125.84
2023-09-03T10:39:27.554Z,94122.00
2023-09-03T10:40:25.979Z,94118.44
2023-09-03T10:41:26.275Z,94119.63
2023-09-03T10:42:27.429Z,94119.66
2023-09-03T10:43:26.814Z,94115.78
2023-09-03T10:44:32.825Z,94115.00
2023-09-03T10:45:29.525Z,94112.72
2023-09-03T10:46:28.953Z,94103.31
2023-09-03T10:47:25.804Z,94097.94
2023-09-03T10:48:22.576Z,94106.38
2023-09-03T10:49:19.323Z,94103.44
2023-09-03T10:50:49.731Z,94099.38
2023-09-03T10:51:46.454Z,94102.69
2023-09-03T10:52:43.218Z,94104.09
2023-09-03T10:53:41.804Z,94102.44
2023-09-03T10:54:39.160Z,94096.50
2023-09-03T10:55:36.124Z,94098.16
2023-09-03T10:56:32.829Z,94096.41
2023-09-03T10:57:31.467Z,94081.28
2023-09-03T10:58:31.959Z,94096.00
2023-09-03T11:00:02.737Z,94093.97
2023-09-03T11:01:27.507Z,94094.38
2023-09-03T11:02:26.477Z,94088.88
2023-09-03T11:03:24.896Z,94086.81
2023-09-03T11:04:21.971Z,94084.06
2023-09-03T11:05:22.198Z,94082.16
2023-09-03T11:06:29.418Z,94083.44
2023-09-03T11:07:26.090Z,94088.72
2023-09-03T11:08:31.740Z,94080.84
2023-09-03T11:09:28.592Z,94080.25
2023-09-03T11:10:26.123Z,94070.81
2023-09-03T11:11:22.950Z,94076.25
2023-09-03T11:12:19.703Z,94073.56
2023-09-03T11:13:26.980Z,94075.84
2023-09-03T11:14:33.351Z,94070.47
2023-09-03T11:15:30.101Z,94075.88
2023-09-03T11:16:38.052Z,94060.03
2023-09-03T11:17:34.763Z,94072.16
2023-09-03T11:18:32.288Z,94062.78
2023-09-03T11:19:40.785Z,94064.22
2023-09-03T11:21:39.849Z,94060.44
2023-09-03T11:22:38.494Z,94067.09
2023-09-03T11:23:36.983Z,94068.47
2023-09-03T11:24:45.987Z,94062.69
2023-09-03T11:25:43.101Z,94069.69
2023-09-03T11:26:40.070Z,94068.72
2023-09-03T11:27:49.118Z,94059.41
2023-09-03T11:28:47.314Z,94056.38
2023-09-03T11:29:43.991Z,94049.91